createdAt,value
2023-05-23T00:00:58.287Z,12.27
2023-05-23T00:03:28.580Z,14.02
2023-05-23T00:05:55.626Z,13.65
2023-05-23T00:08:22.456Z,12.80
2023-05-23T00:10:49.246Z,14.85
2023-05-23T00:13:15.849Z,14.27
2023-05-23T00:15:42.786Z,14.77
2023-05-23T00:18:10.974Z,13.98
2023-05-23T00:20:38.481Z,14.20
2023-05-23T00:23:05.102Z,14.07
2023-05-23T00:25:31.620Z,14.48
2023-05-23T00:27:58.243Z,14.88
2023-05-23T00:30:25.029Z,15.07
2023-05-23T00:32:53.318Z,15.88
2023-05-23T00:35:23.153Z,15.75
2023-05-23T00:37:50.074Z,14.98
2023-05-23T00:40:17.080Z,15.30
2023-05-23T00:42:43.907Z,15.05
2023-05-23T00:45:11.058Z,15.90
2023-05-23T00:47:38.276Z,15.43
2023-05-23T00:50:06.224Z,15.43
2023-05-23T00:52:33.723Z,15.45
2023-05-23T00:55:00.249Z,16.17
2023-05-23T00:57:26.745Z,16.30
2023-05-23T00:59:53.374Z,15.85
2023-05-23T01:02:20.357Z,15.65
2023-05-23T01:04:50.970Z,16.52
2023-05-23T01:09:44.015Z,15.52
2023-05-23T01:12:14.818Z,16.27
2023-05-23T01:15:05.842Z,16.55
2023-05-23T01:18:10.669Z,16.63
2023-05-23T01:21:01.433Z,15.15
2023-05-23T01:24:04.780Z,16.13
2023-05-23T01:26:41.374Z,16.25
2023-05-23T01:29:15.106Z,16.65
2023-05-23T01:31:46.964Z,16.15
2023-05-23T01:34:14.513Z,15.05
2023-05-23T01:36:43.214Z,15.70
2023-05-23T01:39:09.818Z,17.20
2023-05-23T01:41:36.932Z,17.15
2023-05-23T01:44:04.638Z,16.60
2023-05-23T01:46:32.542Z,16.42
2023-05-23T01:49:00.660Z,17.20
2023-05-23T01:51:27.556Z,16.55
2023-05-23T01:53:54.190Z,17.85
2023-05-23T01:56:21.391Z,18.55
2023-05-23T01:58:48.099Z,17.63
2023-05-23T02:01:15.354Z,16.80
2023-05-23T02:03:42.339Z,17.35
2023-05-23T02:06:08.948Z,18.38
2023-05-23T02:08:35.657Z,17.48
2023-05-23T02:11:02.467Z,15.63
2023-05-23T02:13:29.181Z,15.57
2023-05-23T02:15:56.088Z,17.73
2023-05-23T02:18:23.012Z,17.42
2023-05-23T02:20:49.478Z,18.20
2023-05-23T02:23:16.329Z,18.17
2023-05-23T02:25:43.318Z,16.65
2023-05-23T02:28:13.073Z,16.42
2023-05-23T02:30:39.970Z,17.17
2023-05-23T02:33:07.479Z,15.77
2023-05-23T02:35:34.471Z,16.67
2023-05-23T02:38:01.122Z,18.75
2023-05-23T02:40:27.988Z,18.27
2023-05-23T02:42:54.597Z,17.63
2023-05-23T02:45:21.128Z,18.88
2023-05-23T02:47:47.730Z,16.42
2023-05-23T02:50:14.488Z,18.55
2023-05-23T02:52:41.068Z,17.92
2023-05-23T02:55:08.448Z,16.95
2023-05-23T02:57:35.669Z,17.77
2023-05-23T03:00:02.584Z,20.25
2023-05-23T03:02:29.221Z,20.58
2023-05-23T03:04:56.001Z,17.63
2023-05-23T03:07:28.204Z,17.65
2023-05-23T03:09:55.392Z,19.42
2023-05-23T03:12:22.224Z,17.88
2023-05-23T03:14:49.023Z,19.00
2023-05-23T03:17:15.934Z,19.63
2023-05-23T03:19:43.132Z,19.30
2023-05-23T03:22:09.863Z,16.90
2023-05-23T03:24:36.580Z,18.17
2023-05-23T03:27:03.692Z,19.08
2023-05-23T03:29:30.880Z,19.15
2023-05-23T03:31:57.587Z,20.77
2023-05-23T03:34:24.318Z,19.45
2023-05-23T03:36:51.026Z,20.10
2023-05-23T03:39:17.867Z,20.15
2023-05-23T03:41:44.741Z,21.27
2023-05-23T03:44:11.608Z,19.60
2023-05-23T03:46:39.752Z,17.77
2023-05-23T03:49:07.005Z,19.58
2023-05-23T03:51:35.016Z,20.08
2023-05-23T03:54:01.802Z,22.17
2023-05-23T03:56:28.512Z,21.83
2023-05-23T03:58:55.312Z,21.65
2023-05-23T04:01:22.227Z,20.13
2023-05-23T04:03:49.307Z,21.77
2023-05-23T04:06:16.145Z,21.27
2023-05-23T04:08:42.779Z,21.15
2023-05-23T04:11:09.624Z,20.50
2023-05-23T04:13:36.276Z,19.73
2023-05-23T04:16:03.206Z,20.77
2023-05-23T04:18:33.334Z,20.95
2023-05-23T04:21:00.551Z,21.38
2023-05-23T04:23:27.429Z,21.05
2023-05-23T04:25:54.156Z,22.83
2023-05-23T04:28:21.028Z,23.48
2023-05-23T04:30:47.869Z,22.98
2023-05-23T04:33:14.352Z,21.92
2023-05-23T04:35:41.190Z,23.05
2023-05-23T04:38:08.057Z,23.05
2023-05-23T04:40:34.580Z,21.13
2023-05-23T04:43:01.305Z,25.30
2023-05-23T04:45:27.837Z,22.80
2023-05-23T04:47:54.727Z,28.42
2023-05-23T04:50:21.651Z,25.13
2023-05-23T04:52:48.174Z,23.48
2023-05-23T04:55:14.864Z,24.27
2023-05-23T04:57:41.458Z,24.50
2023-05-23T05:00:08.394Z,23.33
2023-05-23T05:02:35.109Z,24.92
2023-05-23T05:05:01.701Z,23.60
2023-05-23T05:07:28.528Z,25.70
2023-05-23T05:09:55.222Z,28.13
2023-05-23T05:12:21.878Z,26.40
2023-05-23T05:14:48.427Z,28.27
2023-05-23T05:17:14.933Z,26.25
2023-05-23T05:19:41.499Z,24.38
2023-05-23T05:22:08.075Z,31.58
2023-05-23T05:24:34.951Z,33.90
2023-05-23T05:27:01.492Z,30.63
2023-05-23T05:29:28.385Z,35.13
2023-05-23T05:31:54.940Z,47.85
2023-05-23T05:34:21.625Z,44.70
2023-05-23T05:36:48.461Z,50.60
2023-05-23T05:39:15.433Z,49.17
2023-05-23T05:41:41.948Z,53.95
2023-05-23T05:44:09.254Z,55.40
2023-05-23T05:46:36.184Z,53.33
2023-05-23T05:49:03.172Z,53.15
2023-05-23T05:51:29.614Z,51.47
2023-05-23T05:53:56.297Z,54.13
2023-05-23T05:56:23.164Z,49.05
2023-05-23T05:58:49.773Z,49.55
2023-05-23T06:01:16.619Z,47.92
2023-05-23T06:03:43.607Z,46.33
2023-05-23T06:06:10.317Z,46.28
2023-05-23T06:08:36.847Z,44.80
2023-05-23T06:11:03.834Z,42.80
2023-05-23T06:13:30.817Z,41.85
2023-05-23T06:15:57.801Z,41.03
2023-05-23T06:18:24.539Z,39.40
2023-05-23T06:20:51.030Z,39.28
2023-05-23T06:23:18.191Z,38.90
2023-05-23T06:25:44.707Z,36.63
2023-05-23T06:28:11.218Z,38.97
2023-05-23T06:30:38.105Z,40.47
2023-05-23T06:33:05.384Z,40.47
2023-05-23T06:35:32.203Z,40.60
2023-05-23T06:37:58.819Z,41.60
2023-05-23T06:40:25.616Z,40.80
2023-05-23T06:42:52.097Z,42.58
2023-05-23T06:45:20.140Z,43.65
2023-05-23T06:47:46.757Z,40.55
2023-05-23T06:50:13.430Z,43.92
2023-05-23T06:52:40.165Z,44.08
2023-05-23T06:55:07.664Z,48.63
2023-05-23T06:57:34.288Z,46.28
2023-05-23T07:00:00.904Z,44.78
2023-05-23T07:02:28.179Z,44.80
2023-05-23T07:04:54.826Z,43.85
2023-05-23T07:07:21.726Z,43.70
2023-05-23T07:09:48.845Z,43.67
2023-05-23T07:12:18.522Z,50.22
2023-05-23T07:14:45.044Z,49.60
2023-05-23T07:17:11.736Z,50.95
2023-05-23T07:19:38.571Z,52.40
2023-05-23T07:22:05.335Z,48.30
2023-05-23T07:24:31.931Z,51.50
2023-05-23T07:26:58.503Z,50.47
2023-05-23T07:29:25.383Z,47.03
2023-05-23T07:31:52.206Z,47.88
2023-05-23T07:34:20.205Z,47.80
2023-05-23T07:36:46.942Z,45.63
2023-05-23T07:39:13.844Z,46.03
2023-05-23T07:41:41.150Z,43.92
2023-05-23T07:44:07.894Z,52.05
2023-05-23T07:46:34.426Z,49.72
2023-05-23T07:49:04.386Z,50.13
2023-05-23T07:51:31.480Z,47.97
2023-05-23T07:53:58.109Z,48.55
2023-05-23T07:56:25.373Z,51.78
2023-05-23T07:58:52.693Z,49.65
2023-05-23T08:01:19.657Z,50.88
2023-05-23T08:03:49.883Z,45.85
2023-05-23T08:06:16.747Z,44.45
2023-05-23T08:08:43.713Z,45.05
2023-05-23T08:11:10.324Z,43.10
2023-05-23T08:13:36.904Z,44.55
2023-05-23T08:16:03.845Z,45.13
2023-05-23T08:18:31.863Z,41.33
2023-05-23T08:20:58.809Z,36.75
2023-05-23T08:23:25.288Z,44.10
2023-05-23T08:25:54.758Z,43.15
2023-05-23T08:28:21.273Z,34.97
2023-05-23T08:30:47.976Z,33.67
2023-05-23T08:33:14.633Z,32.50
2023-05-23T08:35:41.893Z,32.40
2023-05-23T08:38:11.835Z,30.48
2023-05-23T08:40:41.567Z,33.38
2023-05-23T08:43:10.629Z,36.90
2023-05-23T08:45:37.529Z,35.95
2023-05-23T08:48:08.214Z,32.33
2023-05-23T08:50:39.158Z,31.08
2023-05-23T08:53:06.655Z,31.33
2023-05-23T08:55:33.974Z,30.23
2023-05-23T08:58:01.996Z,29.70
2023-05-23T09:00:28.721Z,30.10
2023-05-23T09:02:55.972Z,33.78
2023-05-23T09:05:23.029Z,32.17
2023-05-23T09:07:50.505Z,31.92
2023-05-23T09:10:19.234Z,31.17
2023-05-23T09:12:46.150Z,27.65
2023-05-23T09:15:13.306Z,30.70
2023-05-23T09:17:40.258Z,29.95
2023-05-23T09:20:15.013Z,25.85
2023-05-23T09:22:46.893Z,28.25
2023-05-23T09:25:14.240Z,26.35
2023-05-23T09:27:42.151Z,26.98
2023-05-23T09:30:11.597Z,27.90
2023-05-23T09:32:38.874Z,29.70
2023-05-23T09:35:08.943Z,26.60
2023-05-23T09:37:45.962Z,25.00
2023-05-23T09:40:14.922Z,24.08
2023-05-23T09:42:43.782Z,25.05
2023-05-23T09:45:12.932Z,24.23
2023-05-23T09:47:41.337Z,24.67
2023-05-23T09:50:09.310Z,24.35
2023-05-23T09:52:39.104Z,24.17
2023-05-23T09:55:06.721Z,20.00
2023-05-23T09:57:40.158Z,22.55
2023-05-23T10:00:08.144Z,23.85
2023-05-23T10:02:37.763Z,22.58
2023-05-23T10:05:07.290Z,22.10
2023-05-23T10:07:35.477Z,21.97
2023-05-23T10:10:06.606Z,23.13
2023-05-23T10:12:36.100Z,22.55
2023-05-23T10:15:05.169Z,24.48
2023-05-23T10:17:40.767Z,23.20
2023-05-23T10:20:11.631Z,21.55
2023-05-23T10:22:39.218Z,23.17
2023-05-23T10:25:07.177Z,23.08
2023-05-23T10:27:34.360Z,23.25
2023-05-23T10:30:01.405Z,21.52
2023-05-23T10:32:37.307Z,22.60
2023-05-23T10:35:25.357Z,21.60
2023-05-23T10:38:17.296Z,18.65
2023-05-23T10:41:25.730Z,22.90
2023-05-23T10:44:12.911Z,20.15
2023-05-23T10:47:00.160Z,23.98
2023-05-23T10:49:43.382Z,22.98
2023-05-23T10:52:13.191Z,20.08
2023-05-23T10:54:49.562Z,22.33
2023-05-23T10:57:18.973Z,20.95
2023-05-23T10:59:46.969Z,17.30
2023-05-23T11:02:15.870Z,18.48
2023-05-23T11:04:43.537Z,17.67
2023-05-23T11:07:32.806Z,19.35
2023-05-23T11:10:11.191Z,18.05
2023-05-23T11:12:40.857Z,18.42
2023-05-23T11:15:19.896Z,18.00
2023-05-23T11:17:52.808Z,14.98
2023-05-23T11:20:20.573Z,16.55
2023-05-23T11:22:54.941Z,18.38
2023-05-23T11:25:21.624Z,19.58
2023-05-23T11:27:50.219Z,17.92
2023-05-23T11:30:18.078Z,16.58
2023-05-23T11:32:52.269Z,18.27
2023-05-23T11:35:19.338Z,16.63
2023-05-23T11:37:46.094Z,16.05
2023-05-23T11:40:27.302Z,16.10
2023-05-23T11:42:54.815Z,13.95
2023-05-23T11:45:22.986Z,16.02
2023-05-23T11:47:49.591Z,14.63
2023-05-23T11:50:17.138Z,12.95
2023-05-23T11:52:46.860Z,14.18
2023-05-23T11:55:14.460Z,14.95
2023-05-23T11:57:41.428Z,12.85
2023-05-23T12:00:09.206Z,13.10
2023-05-23T12:02:44.223Z,12.48
2023-05-23T12:05:12.900Z,12.13
2023-05-23T12:07:42.875Z,10.82
2023-05-23T12:10:11.095Z,10.57
2023-05-23T12:12:38.040Z,13.35
2023-05-23T12:15:06.437Z,9.60
2023-05-23T12:17:35.946Z,10.77
2023-05-23T12:20:03.392Z,10.47
2023-05-23T12:22:31.359Z,9.77
2023-05-23T12:24:58.359Z,8.73
2023-05-23T12:27:29.240Z,9.27
2023-05-23T12:30:13.487Z,10.48
2023-05-23T12:32:44.970Z,9.80
2023-05-23T12:35:13.914Z,9.68
2023-05-23T12:37:42.430Z,11.45
2023-05-23T12:40:17.563Z,13.25
2023-05-23T12:42:51.971Z,11.10
2023-05-23T12:45:23.042Z,21.35
2023-05-23T12:47:52.990Z,13.48
2023-05-23T12:50:20.988Z,11.93
2023-05-23T12:52:47.775Z,11.93
2023-05-23T12:55:14.492Z,12.90
2023-05-23T12:57:41.675Z,10.50
2023-05-23T13:00:09.116Z,11.18
2023-05-23T13:02:35.931Z,11.07
2023-05-23T13:05:02.949Z,9.88
2023-05-23T13:07:29.938Z,10.20
2023-05-23T13:09:57.069Z,9.55
2023-05-23T13:12:37.028Z,9.13
2023-05-23T13:15:05.200Z,8.82
2023-05-23T13:17:31.921Z,11.23
2023-05-23T13:19:58.513Z,10.27
2023-05-23T13:22:25.096Z,8.52
2023-05-23T13:24:51.801Z,8.23
2023-05-23T13:27:19.837Z,9.25
2023-05-23T13:29:46.465Z,9.82
2023-05-23T13:32:13.166Z,8.07
2023-05-23T13:34:39.780Z,8.20
2023-05-23T13:37:08.988Z,8.15
2023-05-23T13:39:35.686Z,8.20
2023-05-23T13:42:02.701Z,8.57
2023-05-23T13:44:29.633Z,8.07
2023-05-23T13:46:58.592Z,10.40
2023-05-23T13:49:25.690Z,8.35
2023-05-23T13:51:52.467Z,8.00
2023-05-23T13:54:19.342Z,8.88
2023-05-23T13:56:45.840Z,7.65
2023-05-23T13:59:12.681Z,7.80
2023-05-23T14:01:39.305Z,6.75
2023-05-23T14:04:07.214Z,7.47
2023-05-23T14:06:34.044Z,7.32
2023-05-23T14:09:00.914Z,7.43
2023-05-23T14:11:27.759Z,6.47
2023-05-23T14:13:54.837Z,6.20
2023-05-23T14:16:22.000Z,6.70
2023-05-23T14:18:49.222Z,6.53
2023-05-23T14:21:17.594Z,6.18
2023-05-23T14:23:44.659Z,6.10
2023-05-23T14:26:13.086Z,6.15
2023-05-23T14:28:40.515Z,5.53
2023-05-23T14:31:07.723Z,6.32
2023-05-23T14:33:35.313Z,5.80
2023-05-23T14:36:02.604Z,6.57
2023-05-23T14:38:29.141Z,6.20
2023-05-23T14:40:56.740Z,5.68
2023-05-23T14:43:23.875Z,6.47
2023-05-23T14:45:50.808Z,6.55
2023-05-23T14:48:18.178Z,5.60
2023-05-23T14:50:45.389Z,5.47
2023-05-23T14:53:12.021Z,4.90
2023-05-23T14:55:38.866Z,5.35
2023-05-23T14:58:05.522Z,4.90
2023-05-23T15:00:32.233Z,5.43
2023-05-23T15:02:58.898Z,5.30
2023-05-23T15:05:25.891Z,5.18
2023-05-23T15:07:53.180Z,5.40
2023-05-23T15:10:22.795Z,5.60
2023-05-23T15:12:49.801Z,6.07
2023-05-23T15:15:16.600Z,4.80
2023-05-23T15:17:43.623Z,4.70
2023-05-23T15:20:11.007Z,4.97
2023-05-23T15:22:39.825Z,4.43
2023-05-23T15:25:08.328Z,4.38
2023-05-23T15:27:37.632Z,4.85
2023-05-23T15:30:04.979Z,4.35
2023-05-23T15:32:31.565Z,4.90
2023-05-23T15:34:58.211Z,4.25
2023-05-23T15:37:25.142Z,4.47
2023-05-23T15:39:52.075Z,4.50
2023-05-23T15:42:18.610Z,4.18
2023-05-23T15:44:45.697Z,4.30
2023-05-23T15:47:12.303Z,4.82
2023-05-23T15:49:39.053Z,4.60
2023-05-23T15:52:05.973Z,4.78
2023-05-23T15:54:32.697Z,5.18
2023-05-23T15:56:59.304Z,5.65
2023-05-23T15:59:26.284Z,4.63
2023-05-23T16:01:53.335Z,4.47
2023-05-23T16:04:19.938Z,3.92
2023-05-23T16:06:46.712Z,4.72
2023-05-23T16:09:13.956Z,4.82
2023-05-23T16:11:41.403Z,4.65
2023-05-23T16:14:07.950Z,4.35
2023-05-23T16:16:37.492Z,5.18
2023-05-23T16:19:04.252Z,5.03
2023-05-23T16:21:31.198Z,4.88
2023-05-23T16:23:57.681Z,5.75
2023-05-23T16:26:24.583Z,5.30
2023-05-23T16:28:51.602Z,4.57
2023-05-23T16:31:18.320Z,4.53
2023-05-23T16:33:45.231Z,4.90
2023-05-23T16:36:12.539Z,4.70
2023-05-23T16:38:39.451Z,4.80
2023-05-23T16:41:06.381Z,5.30
2023-05-23T16:43:33.989Z,5.00
2023-05-23T16:46:01.212Z,5.43
2023-05-23T16:48:27.764Z,6.32
2023-05-23T16:50:54.888Z,5.22
2023-05-23T16:53:22.434Z,5.45
2023-05-23T16:55:49.018Z,5.53
2023-05-23T16:58:18.015Z,5.15
2023-05-23T17:00:45.936Z,6.45
2023-05-23T17:03:12.748Z,5.28
2023-05-23T17:05:39.834Z,4.90
2023-05-23T17:08:06.571Z,5.32
2023-05-23T17:10:34.355Z,6.65
2023-05-23T17:13:01.063Z,6.88
2023-05-23T17:15:27.595Z,7.57
2023-05-23T17:17:54.178Z,6.03
2023-05-23T17:20:20.774Z,7.65
2023-05-23T17:22:47.622Z,6.43
2023-05-23T17:25:14.342Z,6.88
2023-05-23T17:27:41.157Z,7.30
2023-05-23T17:30:08.552Z,6.85
2023-05-23T17:32:35.882Z,7.80
2023-05-23T17:35:02.693Z,8.02
2023-05-23T17:37:29.715Z,6.43
2023-05-23T17:39:57.899Z,7.28
2023-05-23T17:42:27.312Z,7.68
2023-05-23T17:44:54.300Z,6.55
2023-05-23T17:47:23.440Z,5.88
2023-05-23T17:49:50.232Z,6.55
2023-05-23T17:52:17.292Z,5.82
2023-05-23T17:54:44.261Z,7.43
2023-05-23T17:57:11.186Z,6.85
2023-05-23T17:59:38.019Z,6.80
2023-05-23T18:02:05.396Z,7.05
2023-05-23T18:04:32.179Z,6.65
2023-05-23T18:06:59.881Z,7.13
2023-05-23T18:09:27.215Z,6.55
2023-05-23T18:11:57.108Z,6.60
2023-05-23T18:14:24.117Z,6.63
2023-05-23T18:16:51.148Z,6.28
2023-05-23T18:19:20.787Z,5.95
2023-05-23T18:21:47.629Z,5.87
2023-05-23T18:24:14.289Z,6.13
2023-05-23T18:26:41.797Z,6.65
2023-05-23T18:29:09.671Z,5.53
2023-05-23T18:31:36.441Z,5.40
2023-05-23T18:34:04.601Z,4.43
2023-05-23T18:36:31.621Z,4.72
2023-05-23T18:38:58.704Z,4.57
2023-05-23T18:41:25.458Z,4.32
2023-05-23T18:43:52.114Z,3.63
2023-05-23T18:46:19.079Z,3.72
2023-05-23T18:48:45.701Z,3.17
2023-05-23T18:51:12.708Z,3.20
2023-05-23T18:53:42.227Z,2.85
2023-05-23T18:56:09.492Z,3.03
2023-05-23T18:58:36.124Z,3.53
2023-05-23T19:01:04.356Z,3.33
2023-05-23T19:03:31.433Z,3.20
2023-05-23T19:05:58.133Z,3.22
2023-05-23T19:08:24.983Z,3.20
2023-05-23T19:10:51.811Z,3.30
2023-05-23T19:13:20.661Z,2.78
2023-05-23T19:15:48.249Z,2.45
2023-05-23T19:18:14.975Z,2.60
2023-05-23T19:20:41.951Z,3.10
2023-05-23T19:23:08.666Z,2.67
2023-05-23T19:25:35.247Z,2.65
2023-05-23T19:28:02.265Z,2.50
2023-05-23T19:30:28.926Z,2.65
2023-05-23T19:32:55.857Z,3.03
2023-05-23T19:35:22.713Z,2.65
2023-05-23T19:37:49.693Z,3.03
2023-05-23T19:40:16.511Z,2.83
2023-05-23T19:42:43.440Z,3.35
2023-05-23T19:45:10.480Z,2.17
2023-05-23T19:47:37.213Z,2.92
2023-05-23T19:50:04.424Z,2.70
2023-05-23T19:52:32.159Z,2.40
2023-05-23T19:55:01.246Z,2.47
2023-05-23T19:57:30.167Z,2.60
2023-05-23T19:59:56.607Z,2.42
2023-05-23T20:02:23.235Z,2.95
2023-05-23T20:04:49.854Z,2.17
2023-05-23T20:07:16.689Z,2.22
2023-05-23T20:09:43.486Z,2.38
2023-05-23T20:12:12.922Z,2.30
2023-05-23T20:14:39.720Z,2.47
2023-05-23T20:17:06.489Z,1.90
2023-05-23T20:19:33.051Z,2.15
2023-05-23T20:22:00.052Z,2.50
2023-05-23T20:24:26.765Z,2.10
2023-05-23T20:26:53.675Z,1.73
2023-05-23T20:29:20.406Z,2.20
2023-05-23T20:31:46.999Z,2.55
2023-05-23T20:34:13.695Z,1.95
2023-05-23T20:36:40.704Z,2.58
2023-05-23T20:39:09.903Z,2.15
2023-05-23T20:41:36.424Z,2.17
2023-05-23T20:44:03.321Z,2.17
2023-05-23T20:46:29.966Z,2.22
2023-05-23T20:48:56.552Z,2.33
2023-05-23T20:51:23.192Z,1.70
2023-05-23T20:53:52.018Z,2.30
2023-05-23T20:56:18.579Z,2.15
2023-05-23T20:58:45.082Z,2.00
2023-05-23T21:01:13.021Z,2.40
2023-05-23T21:03:41.145Z,2.22
2023-05-23T21:06:08.272Z,2.22
2023-05-23T21:08:35.129Z,2.38
2023-05-23T21:11:01.975Z,2.67
2023-05-23T21:13:28.530Z,2.60
2023-05-23T21:15:55.133Z,2.58
2023-05-23T21:18:21.682Z,3.05
2023-05-23T21:20:48.276Z,2.80
2023-05-23T21:23:15.054Z,2.58
2023-05-23T21:25:41.653Z,2.90
2023-05-23T21:28:08.170Z,2.90
2023-05-23T21:30:35.076Z,2.55
2023-05-23T21:33:03.568Z,2.63
2023-05-23T21:35:30.441Z,3.13
2023-05-23T21:37:57.316Z,3.00
2023-05-23T21:40:24.153Z,3.03
2023-05-23T21:42:50.939Z,3.05
2023-05-23T21:45:17.578Z,3.38
2023-05-23T21:47:45.637Z,3.30
2023-05-23T21:50:12.275Z,3.20
2023-05-23T21:52:39.191Z,3.72
2023-05-23T21:55:06.539Z,3.20
2023-05-23T21:57:33.032Z,2.92
2023-05-23T21:59:59.713Z,3.20
2023-05-23T22:02:26.595Z,3.55
2023-05-23T22:04:53.531Z,2.75
2023-05-23T22:07:20.156Z,3.60
2023-05-23T22:09:47.046Z,3.38
2023-05-23T22:12:13.580Z,3.30
2023-05-23T22:14:40.136Z,3.42
2023-05-23T22:17:06.769Z,3.08
2023-05-23T22:19:33.347Z,3.30
2023-05-23T22:22:00.179Z,3.55
2023-05-23T22:24:26.835Z,3.80
2023-05-23T22:26:53.343Z,3.72
2023-05-23T22:29:19.861Z,3.70
2023-05-23T22:31:48.058Z,3.60
2023-05-23T22:34:14.778Z,3.50
2023-05-23T22:36:41.400Z,3.30
2023-05-23T22:39:08.165Z,3.45
2023-05-23T22:41:34.944Z,3.47
2023-05-23T22:44:02.029Z,3.53
2023-05-23T22:46:28.618Z,3.78
2023-05-23T22:48:55.521Z,3.90
2023-05-23T22:51:22.649Z,4.00
2023-05-23T22:53:49.208Z,4.10
2023-05-23T22:56:16.048Z,4.07
2023-05-23T22:58:42.877Z,4.07
2023-05-23T23:01:09.675Z,4.28
2023-05-23T23:03:36.324Z,4.00
2023-05-23T23:06:03.189Z,4.15
2023-05-23T23:08:29.724Z,4.05
2023-05-23T23:10:56.227Z,4.15
2023-05-23T23:13:23.000Z,4.57
2023-05-23T23:15:49.605Z,4.05
2023-05-23T23:18:16.149Z,4.55
2023-05-23T23:20:42.773Z,4.28
2023-05-23T23:23:10.919Z,4.30
2023-05-23T23:25:37.484Z,4.38
2023-05-23T23:28:04.184Z,3.80
2023-05-23T23:30:30.893Z,3.97
2023-05-23T23:32:57.864Z,4.20
2023-05-23T23:35:24.723Z,3.67
2023-05-23T23:37:51.856Z,3.50
2023-05-23T23:40:18.667Z,4.15
2023-05-23T23:42:45.228Z,4.10
2023-05-23T23:45:11.857Z,3.83
2023-05-23T23:47:38.434Z,4.10
2023-05-23T23:50:05.719Z,4.07
2023-05-23T23:52:32.260Z,3.38
2023-05-23T23:54:58.670Z,4.38
2023-05-23T23:57:25.208Z,3.58
2023-05-23T23:59:51.788Z,4.03
